gildia.pl alexa rank chart, gildia.pl alexa rank daily changes

gildia.pl alexa rank chart, gildia.pl alexa rank daily changes

gildia.pl
Actual rank:
112 416

RANK HISTORY

Date Rank Diff
2017/05/26 112 416 -3 114
2017/05/25 115 530 +671
2017/05/24 114 859 +2 457
2017/05/23 112 402 +205
2017/05/22 112 197 -847
2017/05/21 113 044 -892
2017/05/20 113 936 +1 090
2017/05/19 112 846 +186
2017/05/18 112 660 -518
2017/05/17 113 178 +326
2017/05/16 112 852 -215
2017/05/15 113 067 -2 252
2017/05/14 115 319 +36
2017/05/13 115 283 -689
2017/05/12 115 972 -471
2017/05/11 116 443 +211
2017/05/10 116 232 -1 354
2017/05/09 117 586 -1 106
2017/05/08 118 692 +1 173
2017/05/07 117 519 -1 062
2017/05/06 118 581 +33
2017/05/05 118 548 -2 757
2017/05/04 121 305 +1 905
2017/05/03 119 400 +802
2017/05/02 118 598 -830
2017/05/01 119 428 -2 111
2017/04/30 121 539 -240
2017/04/29 121 779 -25
2017/04/28 121 804 +1 538
2017/04/27 120 266 +1 858
2017/04/26 118 408 +865
2017/04/25 117 543 -1 109
2017/04/24 118 652 -4 323
2017/04/23 122 975 -2 928
2017/04/22 125 903 -2 039
2017/04/21 127 942 -2 728
2017/04/20 130 670 -2 887
2017/04/19 133 557 -1 414
2017/04/18 134 971 +3 118
2017/04/17 131 853 -1 087
2017/04/16 132 940 -161
2017/04/15 133 101 +507
2017/04/14 132 594 +2 136
2017/04/13 130 458 +1 120
2017/04/12 129 338 -1 133
2017/04/11 130 471 -1 690
2017/04/10 132 161 +1 734
2017/04/09 130 427 +666
2017/04/08 129 761 -1 640
2017/04/07 131 401 +1 041
2017/04/06 130 360 -2 384
2017/04/05 132 744 +460
2017/04/04 132 284 -855
2017/04/03 133 139 -1 072
2017/04/02 134 211 -653
2017/04/01 134 864 +1 249
2017/03/31 133 615 +1 449
2017/03/30 132 166 +1 368
2017/03/29 130 798 +63
2017/03/28 130 735 -5 062
2017/03/27 135 797

WIDGET FOR YOUR SITE

DOMAINS WITH THE NEAREST RANK

Domain Rank
rero.ch 112 411
looporn.com 112 412
momsonreal.com 112 413
pravosudje.hr 112 414
scidev.net 112 415
gildia.pl 112 416
resman.pl 112 417
akita-u.ac.jp 112 418
wbsubregistration.org 112 419
potvpn.com 112 420
otelo.de 112 421

DOMAINS WITH THE NEAREST RANK BY TLD .pl

Domain Rank
bebio.pl 111 618
mercedes-benz.pl 111 644
mazdaspeed.pl 111 650
zaviruj.pl 112 062
naszemargo.pl 112 084
gildia.pl 112 416
resman.pl 112 417
reebok.pl 112 540
lm.pl 112 620
reporters.pl 112 647
perspektywy.pl 113 154